sensor_id;sensor_type;location;lat;lon;timestamp;pressure;altitude;pressure_sealevel;temperature;humidity
14067;BME280;7108;42.684;23.350;2023-05-14T00:00:12;95765.38;;;14.98;100.00
14067;BME280;7108;42.684;23.350;2023-05-14T00:02:37;95759.91;;;14.94;100.00
14067;BME280;7108;42.684;23.350;2023-05-14T00:05:03;95742.28;;;14.81;100.00
14067;BME280;7108;42.684;23.350;2023-05-14T00:07:29;95762.94;;;14.89;100.00
14067;BME280;7108;42.684;23.350;2023-05-14T00:09:58;95756.81;;;14.96;100.00
14067;BME280;7108;42.684;23.350;2023-05-14T00:12:27;95758.34;;;14.93;100.00
14067;BME280;7108;42.684;23.350;2023-05-14T00:14:54;95762.59;;;14.94;100.00
14067;BME280;7108;42.684;23.350;2023-05-14T00:17:19;95759.19;;;15.01;100.00
14067;BME280;7108;42.684;23.350;2023-05-14T00:19:45;95747.19;;;15.02;100.00
14067;BME280;7108;42.684;23.350;2023-05-14T00:22:10;95751.75;;;14.94;100.00
14067;BME280;7108;42.684;23.350;2023-05-14T00:24:36;95743.28;;;14.99;100.00
14067;BME280;7108;42.684;23.350;2023-05-14T00:27:02;95753.47;;;15.09;100.00
14067;BME280;7108;42.684;23.350;2023-05-14T00:29:28;95731.22;;;14.97;100.00
14067;BME280;7108;42.684;23.350;2023-05-14T00:31:53;95729.00;;;15.06;100.00
14067;BME280;7108;42.684;23.350;2023-05-14T00:34:19;95725.78;;;14.93;100.00
14067;BME280;7108;42.684;23.350;2023-05-14T00:36:44;95734.78;;;15.04;100.00
14067;BME280;7108;42.684;23.350;2023-05-14T00:39:10;95737.16;;;15.09;100.00
14067;BME280;7108;42.684;23.350;2023-05-14T00:41:35;95736.38;;;15.05;100.00
14067;BME280;7108;42.684;23.350;2023-05-14T00:44:01;95723.81;;;14.94;100.00
14067;BME280;7108;42.684;23.350;2023-05-14T00:46:26;95719.63;;;15.00;100.00
14067;BME280;7108;42.684;23.350;2023-05-14T00:48:52;95716.09;;;14.96;100.00
14067;BME280;7108;42.684;23.350;2023-05-14T00:51:18;95732.50;;;15.06;100.00
14067;BME280;7108;42.684;23.350;2023-05-14T00:53:45;95731.31;;;15.07;100.00
14067;BME280;7108;42.684;23.350;2023-05-14T00:56:11;95714.56;;;14.98;100.00
14067;BME280;7108;42.684;23.350;2023-05-14T00:58:37;95714.16;;;14.93;100.00
14067;BME280;7108;42.684;23.350;2023-05-14T01:01:03;95719.59;;;14.96;100.00
14067;BME280;7108;42.684;23.350;2023-05-14T01:03:32;95708.72;;;14.96;100.00
14067;BME280;7108;42.684;23.350;2023-05-14T01:17:07;95711.78;;;14.88;100.00
14067;BME280;7108;42.684;23.350;2023-05-14T01:19:41;95703.97;;;14.83;100.00
14067;BME280;7108;42.684;23.350;2023-05-14T01:22:08;95703.50;;;14.77;100.00
14067;BME280;7108;42.684;23.350;2023-05-14T01:24:34;95711.97;;;14.72;100.00
14067;BME280;7108;42.684;23.350;2023-05-14T01:27:19;95733.34;;;14.77;100.00
14067;BME280;7108;42.684;23.350;2023-05-14T01:29:54;95739.09;;;14.72;100.00
14067;BME280;7108;42.684;23.350;2023-05-14T01:32:23;95749.16;;;14.68;100.00
14067;BME280;7108;42.684;23.350;2023-05-14T01:34:50;95748.72;;;14.66;100.00
14067;BME280;7108;42.684;23.350;2023-05-14T01:37:16;95748.59;;;14.56;100.00
14067;BME280;7108;42.684;23.350;2023-05-14T01:39:42;95740.06;;;14.54;100.00
14067;BME280;7108;42.684;23.350;2023-05-14T01:42:09;95734.59;;;14.50;100.00
14067;BME280;7108;42.684;23.350;2023-05-14T01:44:35;95750.53;;;14.55;100.00
14067;BME280;7108;42.684;23.350;2023-05-14T01:47:00;95751.72;;;14.58;100.00
14067;BME280;7108;42.684;23.350;2023-05-14T01:49:26;95750.53;;;14.55;100.00
14067;BME280;7108;42.684;23.350;2023-05-14T01:51:51;95739.63;;;14.52;100.00
14067;BME280;7108;42.684;23.350;2023-05-14T01:54:17;95734.25;;;14.55;100.00
14067;BME280;7108;42.684;23.350;2023-05-14T01:56:42;95734.53;;;14.47;100.00
14067;BME280;7108;42.684;23.350;2023-05-14T01:59:07;95749.28;;;14.49;100.00
14067;BME280;7108;42.684;23.350;2023-05-14T02:01:33;95750.91;;;14.54;100.00
14067;BME280;7108;42.684;23.350;2023-05-14T02:03:58;95744.56;;;14.43;100.00
14067;BME280;7108;42.684;23.350;2023-05-14T02:06:25;95751.59;;;14.47;100.00
14067;BME280;7108;42.684;23.350;2023-05-14T02:08:51;95751.88;;;14.39;100.00
14067;BME280;7108;42.684;23.350;2023-05-14T02:11:16;95751.13;;;14.42;100.00
14067;BME280;7108;42.684;23.350;2023-05-14T02:13:41;95754.22;;;14.41;100.00
14067;BME280;7108;42.684;23.350;2023-05-14T02:16:07;95748.41;;;14.39;100.00
14067;BME280;7108;42.684;23.350;2023-05-14T02:18:33;95736.63;;;14.28;100.00
14067;BME280;7108;42.684;23.350;2023-05-14T02:20:58;95746.63;;;14.24;100.00
14067;BME280;7108;42.684;23.350;2023-05-14T02:23:24;95744.28;;;14.22;100.00
14067;BME280;7108;42.684;23.350;2023-05-14T02:25:49;95758.66;;;14.26;100.00
14067;BME280;7108;42.684;23.350;2023-05-14T02:28:14;95764.47;;;14.25;100.00
14067;BME280;7108;42.684;23.350;2023-05-14T02:30:40;95757.44;;;14.20;100.00
14067;BME280;7108;42.684;23.350;2023-05-14T02:33:05;95762.56;;;14.25;100.00
14067;BME280;7108;42.684;23.350;2023-05-14T02:35:31;95761.31;;;14.19;100.00
14067;BME280;7108;42.684;23.350;2023-05-14T02:37:56;95765.59;;;14.20;100.00
14067;BME280;7108;42.684;23.350;2023-05-14T02:40:23;95764.72;;;14.13;100.00
14067;BME280;7108;42.684;23.350;2023-05-14T02:42:49;95767.75;;;14.11;100.00
14067;BME280;7108;42.684;23.350;2023-05-14T02:45:14;95779.41;;;14.12;100.00
14067;BME280;7108;42.684;23.350;2023-05-14T02:47:40;95766.44;;;14.02;100.00
14067;BME280;7108;42.684;23.350;2023-05-14T02:50:06;95775.81;;;14.08;100.00
14067;BME280;7108;42.684;23.350;2023-05-14T02:52:32;95781.31;;;14.11;100.00
14067;BME280;7108;42.684;23.350;2023-05-14T02:54:57;95777.06;;;14.10;100.00
14067;BME280;7108;42.684;23.350;2023-05-14T02:57:23;95774.69;;;14.09;100.00
14067;BME280;7108;42.684;23.350;2023-05-14T02:59:48;95780.97;;;14.13;100.00
14067;BME280;7108;42.684;23.350;2023-05-14T03:02:14;95776.38;;;14.17;100.00
14067;BME280;7108;42.684;23.350;2023-05-14T03:04:39;95786.47;;;14.20;100.00
14067;BME280;7108;42.684;23.350;2023-05-14T03:07:04;95777.09;;;14.14;100.00
14067;BME280;7108;42.684;23.350;2023-05-14T03:09:30;95775.63;;;14.20;100.00
14067;BME280;7108;42.684;23.350;2023-05-14T03:11:55;95778.72;;;14.18;100.00
14067;BME280;7108;42.684;23.350;2023-05-14T03:14:21;95772.84;;;14.13;100.00
14067;BME280;7108;42.684;23.350;2023-05-14T03:16:46;95753.72;;;14.06;100.00
14067;BME280;7108;42.684;23.350;2023-05-14T03:19:12;95747.66;;;14.12;100.00
14067;BME280;7108;42.684;23.350;2023-05-14T03:21:37;95749.97;;;14.10;100.00
14067;BME280;7108;42.684;23.350;2023-05-14T03:24:02;95748.03;;;14.11;100.00
14067;BME280;7108;42.684;23.350;2023-05-14T03:26:28;95761.31;;;14.19;100.00
14067;BME280;7108;42.684;23.350;2023-05-14T03:28:53;95761.31;;;14.19;100.00
14067;BME280;7108;42.684;23.350;2023-05-14T03:31:19;95739.03;;;14.07;100.00
14067;BME280;7108;42.684;23.350;2023-05-14T03:33:44;95766.66;;;14.16;100.00
14067;BME280;7108;42.684;23.350;2023-05-14T03:36:10;95767.81;;;14.15;100.00
14067;BME280;7108;42.684;23.350;2023-05-14T03:38:35;95774.69;;;14.09;100.00
14067;BME280;7108;42.684;23.350;2023-05-14T03:41:01;95784.81;;;14.12;100.00
14067;BME280;7108;42.684;23.350;2023-05-14T03:43:26;95775.94;;;14.15;100.00
14067;BME280;7108;42.684;23.350;2023-05-14T03:45:51;95759.16;;;14.06;100.00
14067;BME280;7108;42.684;23.350;2023-05-14T03:48:18;95772.69;;;14.06;100.00
14067;BME280;7108;42.684;23.350;2023-05-14T03:50:44;95785.72;;;13.97;100.00
14067;BME280;7108;42.684;23.350;2023-05-14T03:53:09;95770.19;;;13.94;100.00
14067;BME280;7108;42.684;23.350;2023-05-14T03:55:35;95778.69;;;13.92;100.00
14067;BME280;7108;42.684;23.350;2023-05-14T03:58:01;95775.16;;;13.88;100.00
14067;BME280;7108;42.684;23.350;2023-05-14T04:00:27;95780.19;;;13.90;100.00
14067;BME280;7108;42.684;23.350;2023-05-14T04:02:52;95758.47;;;13.86;100.00
14067;BME280;7108;42.684;23.350;2023-05-14T04:05:18;95769.81;;;13.95;100.00
14067;BME280;7108;42.684;23.350;2023-05-14T04:07:43;95774.03;;;13.93;100.00
14067;BME280;7108;42.684;23.350;2023-05-14T04:10:11;95770.13;;;13.90;100.00
14067;BME280;7108;42.684;23.350;2023-05-14T04:12:36;95776.34;;;13.91;100.00
14067;BME280;7108;42.684;23.350;2023-05-14T04:15:03;95784.09;;;13.92;100.00
14067;BME280;7108;42.684;23.350;2023-05-14T04:17:29;95787.13;;;13.87;100.00
14067;BME280;7108;42.684;23.350;2023-05-14T04:19:54;95788.63;;;13.85;100.00
14067;BME280;7108;42.684;23.350;2023-05-14T04:22:19;95773.41;;;13.77;100.00
14067;BME280;7108;42.684;23.350;2023-05-14T04:24:45;95792.97;;;13.89;100.00
14067;BME280;7108;42.684;23.350;2023-05-14T04:27:10;95788.28;;;13.86;100.00
14067;BME280;7108;42.684;23.350;2023-05-14T04:29:36;95772.22;;;13.74;100.00
14067;BME280;7108;42.684;23.350;2023-05-14T04:32:01;95793.63;;;13.83;100.00
14067;BME280;7108;42.684;23.350;2023-05-14T04:34:26;95789.31;;;13.78;100.00
14067;BME280;7108;42.684;23.350;2023-05-14T04:36:52;95808.06;;;13.90;100.00
14067;BME280;7108;42.684;23.350;2023-05-14T04:39:17;95804.88;;;13.85;100.00
14067;BME280;7108;42.684;23.350;2023-05-14T04:41:43;95813.34;;;13.80;100.00
14067;BME280;7108;42.684;23.350;2023-05-14T04:44:08;95812.91;;;13.78;100.00
14067;BME280;7108;42.684;23.350;2023-05-14T04:46:33;95814.91;;;13.81;100.00
14067;BME280;7108;42.684;23.350;2023-05-14T04:48:59;95819.94;;;13.82;100.00
14067;BME280;7108;42.684;23.350;2023-05-14T04:51:24;95828.06;;;13.82;100.00
14067;BME280;7108;42.684;23.350;2023-05-14T04:53:50;95832.34;;;13.83;100.00
14067;BME280;7108;42.684;23.350;2023-05-14T04:56:16;95827.00;;;13.87;100.00
14067;BME280;7108;42.684;23.350;2023-05-14T04:58:41;95842.13;;;13.91;100.00
14067;BME280;7108;42.684;23.350;2023-05-14T05:01:07;95837.09;;;13.90;100.00
14067;BME280;7108;42.684;23.350;2023-05-14T05:03:32;95836.13;;;13.79;100.00
14067;BME280;7108;42.684;23.350;2023-05-14T05:05:57;95846.59;;;13.80;100.00
14067;BME280;7108;42.684;23.350;2023-05-14T05:08:23;95860.09;;;13.77;100.00
14067;BME280;7108;42.684;23.350;2023-05-14T05:10:48;95860.81;;;13.74;100.00
14067;BME280;7108;42.684;23.350;2023-05-14T05:13:14;95865.34;;;13.67;100.00
14067;BME280;7108;42.684;23.350;2023-05-14T05:15:41;95880.06;;;13.69;100.00
14067;BME280;7108;42.684;23.350;2023-05-14T05:18:07;95884.09;;;13.56;100.00
14067;BME280;7108;42.684;23.350;2023-05-14T05:20:32;95880.38;;;13.42;100.00
14067;BME280;7108;42.684;23.350;2023-05-14T05:22:57;95873.16;;;13.30;100.00
14067;BME280;7108;42.684;23.350;2023-05-14T05:25:23;95883.97;;;13.27;100.00
14067;BME280;7108;42.684;23.350;2023-05-14T05:27:49;95898.06;;;13.17;100.00
14067;BME280;7108;42.684;23.350;2023-05-14T05:30:14;95889.06;;;13.13;100.00
14067;BME280;7108;42.684;23.350;2023-05-14T05:32:40;95899.97;;;13.16;100.00
14067;BME280;7108;42.684;23.350;2023-05-14T05:35:05;95905.59;;;13.08;100.00
14067;BME280;7108;42.684;23.350;2023-05-14T05:37:31;95910.66;;;13.09;100.00
14067;BME280;7108;42.684;23.350;2023-05-14T05:39:57;95909.72;;;13.02;100.00
14067;BME280;7108;42.684;23.350;2023-05-14T05:42:23;95905.03;;;12.99;100.00
14067;BME280;7108;42.684;23.350;2023-05-14T05:44:48;95907.66;;;12.96;100.00
14067;BME280;7108;42.684;23.350;2023-05-14T05:47:13;95921.84;;;12.89;100.00
14067;BME280;7108;42.684;23.350;2023-05-14T05:49:39;95911.97;;;12.81;100.00
14067;BME280;7108;42.684;23.350;2023-05-14T05:52:05;95915.22;;;12.71;100.00
14067;BME280;7108;42.684;23.350;2023-05-14T05:54:30;95914.56;;;12.59;100.00
14067;BME280;7108;42.684;23.350;2023-05-14T05:56:59;95930.59;;;12.67;100.00
14067;BME280;7108;42.684;23.350;2023-05-14T05:59:25;95925.81;;;12.61;100.00
14067;BME280;7108;42.684;23.350;2023-05-14T06:01:50;95917.63;;;12.57;100.00
14067;BME280;7108;42.684;23.350;2023-05-14T06:04:15;95904.13;;;12.42;100.00
14067;BME280;7108;42.684;23.350;2023-05-14T06:06:41;95892.94;;;12.25;100.00
14067;BME280;7108;42.684;23.350;2023-05-14T06:09:06;95903.16;;;12.16;100.00
14067;BME280;7108;42.684;23.350;2023-05-14T06:11:33;95911.50;;;12.11;100.00
14067;BME280;7108;42.684;23.350;2023-05-14T06:13:59;95918.31;;;12.20;100.00
14067;BME280;7108;42.684;23.350;2023-05-14T06:16:24;95910.91;;;12.17;100.00
14067;BME280;7108;42.684;23.350;2023-05-14T06:18:50;95933.91;;;12.27;100.00
14067;BME280;7108;42.684;23.350;2023-05-14T06:21:17;95935.22;;;12.33;100.00
14067;BME280;7108;42.684;23.350;2023-05-14T06:23:42;95926.28;;;12.32;100.00
14067;BME280;7108;42.684;23.350;2023-05-14T06:26:08;95914.28;;;12.30;100.00
14067;BME280;7108;42.684;23.350;2023-05-14T06:28:33;95901.56;;;12.30;100.00
14067;BME280;7108;42.684;23.350;2023-05-14T06:30:59;95917.50;;;12.35;100.00
14067;BME280;7108;42.684;23.350;2023-05-14T06:33:24;95899.13;;;12.25;100.00
14067;BME280;7108;42.684;23.350;2023-05-14T06:35:58;95928.13;;;12.43;100.00
14067;BME280;7108;42.684;23.350;2023-05-14T06:38:24;95940.66;;;12.51;100.00
14067;BME280;7108;42.684;23.350;2023-05-14T06:40:50;95937.59;;;12.53;100.00
14067;BME280;7108;42.684;23.350;2023-05-14T06:43:17;95930.66;;;12.52;100.00
14067;BME280;7108;42.684;23.350;2023-05-14T06:45:42;95920.78;;;12.44;100.00
14067;BME280;7108;42.684;23.350;2023-05-14T06:48:08;95929.25;;;12.43;100.00
14067;BME280;7108;42.684;23.350;2023-05-14T06:50:34;95910.53;;;12.34;100.00
14067;BME280;7108;42.684;23.350;2023-05-14T06:53:00;95936.28;;;12.47;100.00
14067;BME280;7108;42.684;23.350;2023-05-14T06:55:25;95898.16;;;12.33;100.00
14067;BME280;7108;42.684;23.350;2023-05-14T06:57:51;95906.25;;;12.33;100.00
14067;BME280;7108;42.684;23.350;2023-05-14T07:00:16;95908.84;;;12.45;100.00
14067;BME280;7108;42.684;23.350;2023-05-14T07:02:42;95906.91;;;12.45;100.00
14067;BME280;7108;42.684;23.350;2023-05-14T07:05:08;95910.56;;;12.53;100.00
14067;BME280;7108;42.684;23.350;2023-05-14T07:07:33;95913.44;;;12.60;100.00
14067;BME280;7108;42.684;23.350;2023-05-14T07:09:58;95921.25;;;12.65;100.00
14067;BME280;7108;42.684;23.350;2023-05-14T07:12:24;95902.25;;;12.61;100.00
14067;BME280;7108;42.684;23.350;2023-05-14T07:14:50;95912.38;;;12.64;100.00
14067;BME280;7108;42.684;23.350;2023-05-14T07:17:15;95921.25;;;12.65;100.00
14067;BME280;7108;42.684;23.350;2023-05-14T07:19:40;95940.47;;;12.60;100.00
14067;BME280;7108;42.684;23.350;2023-05-14T07:22:06;95960.88;;;12.57;100.00
14067;BME280;7108;42.684;23.350;2023-05-14T07:24:31;95955.91;;;12.59;100.00
14067;BME280;7108;42.684;23.350;2023-05-14T07:26:57;95948.09;;;12.39;100.00
14067;BME280;7108;42.684;23.350;2023-05-14T07:29:22;95936.56;;;12.42;100.00
14067;BME280;7108;42.684;23.350;2023-05-14T07:31:49;95932.06;;;12.31;100.00
14067;BME280;7108;42.684;23.350;2023-05-14T07:34:15;95941.81;;;12.35;100.00
14067;BME280;7108;42.684;23.350;2023-05-14T07:36:41;95935.34;;;12.40;100.00
14067;BME280;7108;42.684;23.350;2023-05-14T07:39:06;95928.59;;;12.30;100.00
14067;BME280;7108;42.684;23.350;2023-05-14T07:41:32;95935.97;;;12.33;100.00
14067;BME280;7108;42.684;23.350;2023-05-14T07:43:57;95937.19;;;12.36;100.00
14067;BME280;7108;42.684;23.350;2023-05-14T07:46:22;95944.34;;;12.43;100.00
14067;BME280;7108;42.684;23.350;2023-05-14T07:48:49;95949.75;;;12.43;100.00
14067;BME280;7108;42.684;23.350;2023-05-14T07:51:15;95947.53;;;12.49;100.00
14067;BME280;7108;42.684;23.350;2023-05-14T07:53:40;95945.00;;;12.56;100.00
14067;BME280;7108;42.684;23.350;2023-05-14T07:56:06;95953.91;;;12.56;100.00
14067;BME280;7108;42.684;23.350;2023-05-14T07:58:32;95959.84;;;12.62;100.00
14067;BME280;7108;42.684;23.350;2023-05-14T08:00:59;95965.56;;;12.60;100.00
14067;BME280;7108;42.684;23.350;2023-05-14T08:03:25;95954.88;;;12.48;100.00
14067;BME280;7108;42.684;23.350;2023-05-14T08:05:51;95958.53;;;12.41;100.00
14067;BME280;7108;42.684;23.350;2023-05-14T08:08:16;95957.19;;;12.31;100.00
14067;BME280;7108;42.684;23.350;2023-05-14T08:10:42;95968.41;;;12.33;100.00
14067;BME280;7108;42.684;23.350;2023-05-14T08:13:07;95947.91;;;12.32;100.00
14067;BME280;7108;42.684;23.350;2023-05-14T08:15:33;95955.88;;;12.25;100.00
14067;BME280;7108;42.684;23.350;2023-05-14T08:17:58;95958.91;;;12.24;100.00
14067;BME280;7108;42.684;23.350;2023-05-14T08:20:28;95947.22;;;12.20;100.00
14067;BME280;7108;42.684;23.350;2023-05-14T08:22:55;95933.38;;;12.21;100.00
14067;BME280;7108;42.684;23.350;2023-05-14T08:25:22;95917.28;;;12.09;100.00
14067;BME280;7108;42.684;23.350;2023-05-14T08:27:47;95937.22;;;12.20;100.00
14067;BME280;7108;42.684;23.350;2023-05-14T08:30:13;95913.78;;;12.09;100.00
14067;BME280;7108;42.684;23.350;2023-05-14T08:32:39;95927.09;;;12.17;100.00
14067;BME280;7108;42.684;23.350;2023-05-14T08:35:04;95935.13;;;12.14;100.00
14067;BME280;7108;42.684;23.350;2023-05-14T08:37:30;95935.31;;;12.05;100.00
14067;BME280;7108;42.684;23.350;2023-05-14T08:39:56;95916.16;;;11.95;100.00
14067;BME280;7108;42.684;23.350;2023-05-14T08:42:23;95926.50;;;12.08;100.00
14067;BME280;7108;42.684;23.350;2023-05-14T08:44:52;95917.78;;;12.15;100.00
14067;BME280;7108;42.684;23.350;2023-05-14T08:47:21;95917.44;;;12.16;100.00
14067;BME280;7108;42.684;23.350;2023-05-14T08:49:53;95904.09;;;12.23;100.00
14067;BME280;7108;42.684;23.350;2023-05-14T08:52:21;95920.38;;;12.27;100.00
14067;BME280;7108;42.684;23.350;2023-05-14T08:54:47;95913.78;;;12.09;100.00
14067;BME280;7108;42.684;23.350;2023-05-14T08:57:17;95896.78;;;12.08;100.00
14067;BME280;7108;42.684;23.350;2023-05-14T08:59:44;95898.97;;;12.18;100.00
14067;BME280;7108;42.684;23.350;2023-05-14T09:02:10;95887.28;;;12.14;100.00
14067;BME280;7108;42.684;23.350;2023-05-14T09:04:39;95901.91;;;12.29;100.00
14067;BME280;7108;42.684;23.350;2023-05-14T09:07:06;95908.19;;;12.33;100.00
14067;BME280;7108;42.684;23.350;2023-05-14T09:09:31;95923.59;;;12.32;100.00
14067;BME280;7108;42.684;23.350;2023-05-14T09:11:57;95896.88;;;12.12;100.00
14067;BME280;7108;42.684;23.350;2023-05-14T09:14:23;95896.09;;;12.11;100.00
14067;BME280;7108;42.684;23.350;2023-05-14T09:16:49;95899.59;;;12.12;100.00
14067;BME280;7108;42.684;23.350;2023-05-14T09:19:15;95899.06;;;12.06;100.00
14067;BME280;7108;42.684;23.350;2023-05-14T09:21:44;95909.09;;;12.06;100.00
14067;BME280;7108;42.684;23.350;2023-05-14T09:24:21;95910.31;;;12.08;100.00
14067;BME280;7108;42.684;23.350;2023-05-14T09:26:51;95913.69;;;12.21;100.00
14067;BME280;7108;42.684;23.350;2023-05-14T09:29:17;95917.16;;;12.21;100.00
14067;BME280;7108;42.684;23.350;2023-05-14T09:31:43;95899.31;;;12.17;100.00
14067;BME280;7108;42.684;23.350;2023-05-14T09:34:08;95894.38;;;12.03;100.00
14067;BME280;7108;42.684;23.350;2023-05-14T09:36:34;95888.88;;;12.00;100.00
14067;BME280;7108;42.684;23.350;2023-05-14T09:39:02;95909.94;;;12.10;100.00
14067;BME280;7108;42.684;23.350;2023-05-14T09:41:28;95874.16;;;11.97;100.00
14067;BME280;7108;42.684;23.350;2023-05-14T09:43:54;95875.72;;;11.98;100.00
14067;BME280;7108;42.684;23.350;2023-05-14T09:46:21;95876.41;;;12.11;100.00
14067;BME280;7108;42.684;23.350;2023-05-14T09:48:48;95874.75;;;12.06;100.00
14067;BME280;7108;42.684;23.350;2023-05-14T09:51:13;95888.97;;;12.03;100.00
14067;BME280;7108;42.684;23.350;2023-05-14T09:53:42;95874.06;;;11.94;100.00
14067;BME280;7108;42.684;23.350;2023-05-14T09:56:08;95887.06;;;11.88;100.00
14067;BME280;7108;42.684;23.350;2023-05-14T09:58:34;95886.88;;;11.97;100.00
14067;BME280;7108;42.684;23.350;2023-05-14T10:01:00;95886.00;;;12.08;100.00
14067;BME280;7108;42.684;23.350;2023-05-14T10:03:28;95887.78;;;12.20;100.00
14067;BME280;7108;42.684;23.350;2023-05-14T10:05:55;95876.84;;;12.13;100.00
14067;BME280;7108;42.684;23.350;2023-05-14T10:08:48;95861.31;;;12.25;100.00
14067;BME280;7108;42.684;23.350;2023-05-14T10:11:18;95857.72;;;12.21;100.00
14067;BME280;7108;42.684;23.350;2023-05-14T10:13:56;95855.81;;;12.22;100.00
14067;BME280;7108;42.684;23.350;2023-05-14T10:16:33;95855.19;;;12.28;100.00
14067;BME280;7108;42.684;23.350;2023-05-14T10:19:09;95838.88;;;12.25;100.00
14067;BME280;7108;42.684;23.350;2023-05-14T10:21:36;95845.09;;;12.25;100.00
14067;BME280;7108;42.684;23.350;2023-05-14T10:24:03;95840.66;;;12.17;100.00
14067;BME280;7108;42.684;23.350;2023-05-14T10:26:30;95831.25;;;12.11;100.00
14067;BME280;7108;42.684;23.350;2023-05-14T10:28:56;95832.50;;;11.98;100.00
14067;BME280;7108;42.684;23.350;2023-05-14T10:31:23;95856.00;;;12.13;100.00
14067;BME280;7108;42.684;23.350;2023-05-14T10:33:49;95860.28;;;12.14;100.00
14067;BME280;7108;42.684;23.350;2023-05-14T10:36:19;95857.41;;;12.07;100.00
14067;BME280;7108;42.684;23.350;2023-05-14T10:38:45;95853.75;;;12.00;100.00
14067;BME280;7108;42.684;23.350;2023-05-14T10:41:12;95852.09;;;11.95;100.00
14067;BME280;7108;42.684;23.350;2023-05-14T10:43:40;95855.00;;;11.87;100.00
14067;BME280;7108;42.684;23.350;2023-05-14T10:46:08;95844.03;;;11.80;100.00
14067;BME280;7108;42.684;23.350;2023-05-14T10:48:35;95842.72;;;11.74;100.00
14067;BME280;7108;42.684;23.350;2023-05-14T10:51:01;95844.97;;;11.72;100.00
14067;BME280;7108;42.684;23.350;2023-05-14T10:56:06;95841.88;;;11.70;100.00
14067;BME280;7108;42.684;23.350;2023-05-14T10:58:37;95866.06;;;11.82;100.00
14067;BME280;7108;42.684;23.350;2023-05-14T11:01:04;95847.00;;;11.75;100.00
14067;BME280;7108;42.684;23.350;2023-05-14T11:03:31;95831.22;;;11.77;100.00
14067;BME280;7108;42.684;23.350;2023-05-14T11:05:58;95830.63;;;11.68;100.00
14067;BME280;7108;42.684;23.350;2023-05-14T11:08:26;95839.84;;;11.67;100.00
14067;BME280;7108;42.684;23.350;2023-05-14T11:10:53;95849.09;;;11.66;100.00
14067;BME280;7108;42.684;23.350;2023-05-14T11:13:20;95847.94;;;11.67;100.00
14067;BME280;7108;42.684;23.350;2023-05-14T11:15:45;95856.03;;;11.67;100.00
14067;BME280;7108;42.684;23.350;2023-05-14T11:18:13;95851.94;;;11.73;100.00
14067;BME280;7108;42.684;23.350;2023-05-14T11:20:39;95863.38;;;11.67;100.00
14067;BME280;7108;42.684;23.350;2023-05-14T11:23:04;95864.31;;;11.74;100.00
14067;BME280;7108;42.684;23.350;2023-05-14T11:25:30;95851.34;;;11.79;100.00
14067;BME280;7108;42.684;23.350;2023-05-14T11:27:55;95856.50;;;11.84;100.00
14067;BME280;7108;42.684;23.350;2023-05-14T11:30:23;95837.78;;;11.76;100.00
14067;BME280;7108;42.684;23.350;2023-05-14T11:32:49;95835.41;;;11.75;100.00
14067;BME280;7108;42.684;23.350;2023-05-14T11:35:16;95845.16;;;11.79;100.00
14067;BME280;7108;42.684;23.350;2023-05-14T11:37:42;95838.09;;;11.75;100.00
14067;BME280;7108;42.684;23.350;2023-05-14T11:40:13;95846.47;;;11.70;100.00
14067;BME280;7108;42.684;23.350;2023-05-14T11:42:39;95832.00;;;11.62;100.00
14067;BME280;7108;42.684;23.350;2023-05-14T11:45:05;95838.88;;;11.60;100.00
14067;BME280;7108;42.684;23.350;2023-05-14T11:47:31;95812.16;;;11.55;100.00
14067;BME280;7108;42.684;23.350;2023-05-14T11:49:57;95813.13;;;11.62;100.00
14067;BME280;7108;42.684;23.350;2023-05-14T11:52:23;95817.94;;;11.69;100.00
14067;BME280;7108;42.684;23.350;2023-05-14T11:54:48;95828.00;;;11.72;100.00
14067;BME280;7108;42.684;23.350;2023-05-14T11:57:19;95809.03;;;11.68;100.00
14067;BME280;7108;42.684;23.350;2023-05-14T11:59:46;95816.59;;;11.78;100.00
14067;BME280;7108;42.684;23.350;2023-05-14T12:02:14;95815.28;;;11.87;100.00
14067;BME280;7108;42.684;23.350;2023-05-14T12:04:43;95802.72;;;11.95;100.00
14067;BME280;7108;42.684;23.350;2023-05-14T12:07:11;95791.56;;;11.96;100.00
14067;BME280;7108;42.684;23.350;2023-05-14T12:09:59;95805.59;;;12.02;100.00
14067;BME280;7108;42.684;23.350;2023-05-14T12:12:24;95786.69;;;12.02;100.00
14067;BME280;7108;42.684;23.350;2023-05-14T12:14:50;95782.50;;;12.04;100.00
14067;BME280;7108;42.684;23.350;2023-05-14T12:17:20;95767.78;;;12.02;100.00
14067;BME280;7108;42.684;23.350;2023-05-14T12:19:49;95775.69;;;12.10;100.00
14067;BME280;7108;42.684;23.350;2023-05-14T12:22:17;95765.28;;;12.12;100.00
14067;BME280;7108;42.684;23.350;2023-05-14T12:24:52;95760.75;;;12.16;100.00
14067;BME280;7108;42.684;23.350;2023-05-14T12:27:21;95744.47;;;12.13;100.00
14067;BME280;7108;42.684;23.350;2023-05-14T12:29:46;95753.56;;;12.05;100.00
14067;BME280;7108;42.684;23.350;2023-05-14T12:32:13;95756.19;;;12.01;100.00
14067;BME280;7108;42.684;23.350;2023-05-14T12:34:38;95736.94;;;12.03;100.00
14067;BME280;7108;42.684;23.350;2023-05-14T12:37:05;95762.78;;;12.04;100.00
14067;BME280;7108;42.684;23.350;2023-05-14T12:39:32;95752.88;;;12.08;100.00
14067;BME280;7108;42.684;23.350;2023-05-14T12:41:58;95740.69;;;12.17;100.00
14067;BME280;7108;42.684;23.350;2023-05-14T12:44:23;95721.34;;;11.96;100.00
14067;BME280;7108;42.684;23.350;2023-05-14T12:46:49;95735.50;;;12.09;100.00
14067;BME280;7108;42.684;23.350;2023-05-14T12:49:15;95735.72;;;12.19;100.00
14067;BME280;7108;42.684;23.350;2023-05-14T12:51:40;95745.47;;;12.24;100.00
14067;BME280;7108;42.684;23.350;2023-05-14T12:54:05;95742.34;;;12.22;100.00
14067;BME280;7108;42.684;23.350;2023-05-14T12:56:31;95732.66;;;12.21;100.00
14067;BME280;7108;42.684;23.350;2023-05-14T12:58:56;95738.16;;;12.24;100.00